createdAt,value
2022-09-03T00:02:16.311Z,4.05
2022-09-03T00:04:52.993Z,4.93
2022-09-03T00:07:35.030Z,3.25
2022-09-03T00:10:08.737Z,4.47
2022-09-03T00:12:40.805Z,5.82
2022-09-03T00:15:15.204Z,3.83
2022-09-03T00:17:57.274Z,3.35
2022-09-03T00:20:37.643Z,4.20
2022-09-03T00:23:11.216Z,6.47
2022-09-03T00:25:42.533Z,7.03
2022-09-03T00:28:29.553Z,5.45
2022-09-03T00:31:18.597Z,4.28
2022-09-03T00:33:48.189Z,3.92
2022-09-03T00:36:28.323Z,5.70
2022-09-03T00:38:55.094Z,5.63
2022-09-03T00:41:41.516Z,4.75
2022-09-03T00:44:48.534Z,6.35
2022-09-03T00:47:29.897Z,5.85
2022-09-03T00:50:11.459Z,4.40
2022-09-03T00:52:47.477Z,3.80
2022-09-03T00:55:29.472Z,4.10
2022-09-03T00:58:05.140Z,3.83
2022-09-03T01:00:38.204Z,6.35
2022-09-03T01:05:56.482Z,3.55
2022-09-03T01:08:44.051Z,3.65
2022-09-03T01:11:39.040Z,3.17
2022-09-03T01:14:39.353Z,4.00
2022-09-03T01:17:24.329Z,9.02
2022-09-03T01:19:59.880Z,5.28
2022-09-03T01:23:05.498Z,6.20
2022-09-03T01:25:58.173Z,7.13
2022-09-03T01:28:34.699Z,5.18
2022-09-03T01:31:14.073Z,4.30
2022-09-03T01:34:11.687Z,4.65
2022-09-03T01:37:05.773Z,4.07
2022-09-03T01:39:58.595Z,8.98
2022-09-03T01:42:49.231Z,7.13
2022-09-03T01:45:35.680Z,3.75
2022-09-03T01:48:18.199Z,4.18
2022-09-03T01:50:59.691Z,4.75
2022-09-03T01:53:35.471Z,6.40
2022-09-03T01:58:47.109Z,3.20
2022-09-03T02:01:22.915Z,2.92
2022-09-03T02:03:52.131Z,2.92
2022-09-03T02:06:20.910Z,5.47
2022-09-03T02:08:49.410Z,8.77
2022-09-03T02:11:16.053Z,5.65
2022-09-03T02:13:48.740Z,6.65
2022-09-03T02:16:22.478Z,7.25
2022-09-03T02:18:54.396Z,4.57
2022-09-03T02:21:23.068Z,5.18
2022-09-03T02:23:54.488Z,3.40
2022-09-03T02:26:23.988Z,4.22
2022-09-03T02:28:54.323Z,3.70
2022-09-03T02:31:21.324Z,6.90
2022-09-03T02:33:49.160Z,5.70
2022-09-03T02:36:20.033Z,3.83
2022-09-03T02:38:46.804Z,6.80
2022-09-03T02:41:18.443Z,4.68
2022-09-03T02:44:09.744Z,9.20
2022-09-03T02:46:41.069Z,6.15
2022-09-03T02:49:08.478Z,4.95
2022-09-03T02:51:45.061Z,6.25
2022-09-03T02:54:12.554Z,7.65
2022-09-03T02:56:39.244Z,6.65
2022-09-03T02:59:13.431Z,5.43
2022-09-03T03:01:40.047Z,5.88
2022-09-03T03:04:08.668Z,4.38
2022-09-03T03:06:35.598Z,4.82
2022-09-03T03:09:05.915Z,6.88
2022-09-03T03:11:33.264Z,6.18
2022-09-03T03:14:01.587Z,4.60
2022-09-03T03:16:32.009Z,4.25
2022-09-03T03:18:58.895Z,6.30
2022-09-03T03:21:25.839Z,6.97
2022-09-03T03:23:52.438Z,5.50
2022-09-03T03:26:21.126Z,7.55
2022-09-03T03:28:51.846Z,9.70
2022-09-03T03:31:22.591Z,6.00
2022-09-03T03:33:57.126Z,7.35
2022-09-03T03:36:25.869Z,10.07
2022-09-03T03:38:57.243Z,8.63
2022-09-03T03:41:30.396Z,7.55
2022-09-03T03:43:59.449Z,8.02
2022-09-03T03:46:30.284Z,8.25
2022-09-03T03:48:57.052Z,6.82
2022-09-03T03:51:23.917Z,7.20
2022-09-03T03:53:55.827Z,7.55
2022-09-03T03:56:25.474Z,7.32
2022-09-03T03:58:53.173Z,10.75
2022-09-03T04:01:22.562Z,8.57
2022-09-03T04:03:49.663Z,11.82
2022-09-03T04:06:18.689Z,11.55
2022-09-03T04:08:57.749Z,7.43
2022-09-03T04:11:25.394Z,6.13
2022-09-03T04:13:52.770Z,6.85
2022-09-03T04:16:21.902Z,6.70
2022-09-03T04:18:49.603Z,6.35
2022-09-03T04:21:24.356Z,6.82
2022-09-03T04:26:22.663Z,6.45
2022-09-03T04:28:51.306Z,6.47
2022-09-03T04:31:21.285Z,6.63
2022-09-03T04:33:48.149Z,5.63
2022-09-03T04:36:17.731Z,6.13
2022-09-03T04:38:45.840Z,6.97
2022-09-03T04:41:20.528Z,5.68
2022-09-03T04:43:51.597Z,4.47
2022-09-03T04:46:21.151Z,6.57
2022-09-03T04:48:53.551Z,6.50
2022-09-03T04:51:27.337Z,4.40
2022-09-03T04:54:00.355Z,7.10
2022-09-03T04:56:35.093Z,6.07
2022-09-03T04:59:12.543Z,3.80
2022-09-03T05:01:41.466Z,4.80
2022-09-03T05:04:08.768Z,3.90
2022-09-03T05:06:37.382Z,4.35
2022-09-03T05:09:05.173Z,3.55
2022-09-03T05:11:32.028Z,3.88
2022-09-03T05:14:04.299Z,3.28
2022-09-03T05:16:33.828Z,6.35
2022-09-03T05:19:01.495Z,3.97
2022-09-03T05:21:29.625Z,5.93
2022-09-03T05:23:56.658Z,3.92
2022-09-03T05:26:26.062Z,3.78
2022-09-03T05:28:58.534Z,3.70
2022-09-03T05:31:28.781Z,4.72
2022-09-03T05:33:59.856Z,4.88
2022-09-03T05:36:35.990Z,4.32
2022-09-03T05:39:03.723Z,4.60
2022-09-03T05:41:30.335Z,7.00
2022-09-03T05:43:59.558Z,3.72
2022-09-03T05:46:38.086Z,6.65
2022-09-03T05:49:06.754Z,4.15
2022-09-03T05:51:35.575Z,6.55
2022-09-03T05:54:07.538Z,4.85
2022-09-03T05:56:35.859Z,7.45
2022-09-03T05:59:06.947Z,4.45
2022-09-03T06:01:36.305Z,4.13
2022-09-03T06:04:07.865Z,5.93
2022-09-03T06:06:39.778Z,4.75
2022-09-03T06:09:10.768Z,4.00
2022-09-03T06:11:39.341Z,3.80
2022-09-03T06:14:08.804Z,3.88
2022-09-03T06:16:44.531Z,3.20
2022-09-03T06:21:43.046Z,3.30
2022-09-03T06:24:19.307Z,5.15
2022-09-03T06:26:46.808Z,5.22
2022-09-03T06:29:16.074Z,3.10
2022-09-03T06:31:42.941Z,3.80
2022-09-03T06:34:09.593Z,8.18
2022-09-03T06:36:36.241Z,3.80
2022-09-03T06:39:03.077Z,5.82
2022-09-03T06:41:34.111Z,5.40
2022-09-03T06:44:04.029Z,3.30
2022-09-03T06:46:33.222Z,3.40
2022-09-03T06:49:00.491Z,2.17
2022-09-03T06:51:29.676Z,3.08
2022-09-03T06:54:01.584Z,5.15
2022-09-03T06:56:28.379Z,2.42
2022-09-03T06:58:59.604Z,2.42
2022-09-03T07:01:32.297Z,2.70
2022-09-03T07:04:03.461Z,3.13
2022-09-03T07:06:38.785Z,3.72
2022-09-03T07:09:08.803Z,2.97
2022-09-03T07:11:36.691Z,5.50
2022-09-03T07:14:05.011Z,2.40
2022-09-03T07:16:37.025Z,4.78
2022-09-03T07:19:05.279Z,2.95
2022-09-03T07:21:36.909Z,2.40
2022-09-03T07:24:13.290Z,2.85
2022-09-03T07:26:44.682Z,3.15
2022-09-03T07:29:12.239Z,2.50
2022-09-03T07:31:41.705Z,3.30
2022-09-03T07:34:12.710Z,2.47
2022-09-03T07:36:44.603Z,3.50
2022-09-03T07:39:12.655Z,2.50
2022-09-03T07:41:41.340Z,3.05
2022-09-03T07:44:10.719Z,3.20
2022-09-03T07:46:38.500Z,4.68
2022-09-03T07:49:06.442Z,3.30
2022-09-03T07:51:39.448Z,3.63
2022-09-03T07:54:09.871Z,3.75
2022-09-03T07:56:48.332Z,3.72
2022-09-03T07:59:16.963Z,6.57
2022-09-03T08:01:43.846Z,3.80
2022-09-03T08:04:20.191Z,3.70
2022-09-03T08:06:55.628Z,2.95
2022-09-03T08:09:24.560Z,4.20
2022-09-03T08:11:51.713Z,2.85
2022-09-03T08:14:19.137Z,2.50
2022-09-03T08:16:49.582Z,2.75
2022-09-03T08:19:18.613Z,2.60
2022-09-03T08:21:53.166Z,2.60
2022-09-03T08:24:22.353Z,2.50
2022-09-03T08:26:52.123Z,3.15
2022-09-03T08:29:20.259Z,2.92
2022-09-03T08:31:50.020Z,3.88
2022-09-03T08:34:17.896Z,5.68
2022-09-03T08:36:46.613Z,3.70
2022-09-03T08:39:15.458Z,2.70
2022-09-03T08:41:58.539Z,2.72
2022-09-03T08:44:32.596Z,5.07
2022-09-03T08:47:20.853Z,2.78
2022-09-03T08:50:13.540Z,5.65
2022-09-03T08:52:50.651Z,10.00
2022-09-03T08:55:29.311Z,12.07
2022-09-03T08:58:01.840Z,7.82
2022-09-03T09:00:56.408Z,5.30
2022-09-03T09:03:31.167Z,2.92
2022-09-03T09:06:08.518Z,2.78
2022-09-03T09:08:51.876Z,1.20
2022-09-03T09:12:15.968Z,1.50
2022-09-03T09:14:49.303Z,1.60
2022-09-03T09:17:38.283Z,1.20
2022-09-03T09:20:37.648Z,1.13
2022-09-03T09:23:12.237Z,1.15
2022-09-03T09:25:48.501Z,1.05
2022-09-03T09:28:36.084Z,0.90
2022-09-03T09:31:12.597Z,0.93
2022-09-03T09:33:39.348Z,1.00
2022-09-03T09:36:09.815Z,1.40
2022-09-03T09:38:38.743Z,1.67
2022-09-03T09:41:30.066Z,1.60
2022-09-03T09:44:02.280Z,3.20
2022-09-03T09:46:36.986Z,1.63
2022-09-03T09:49:18.514Z,2.03
2022-09-03T09:51:46.447Z,1.85
2022-09-03T09:54:20.050Z,1.25
2022-09-03T09:57:05.562Z,4.20
2022-09-03T09:59:34.091Z,1.30
2022-09-03T10:02:28.823Z,2.60
2022-09-03T10:05:02.034Z,1.27
2022-09-03T10:07:32.335Z,4.22
2022-09-03T10:10:15.899Z,2.28
2022-09-03T10:13:18.722Z,1.83
2022-09-03T10:16:03.362Z,0.90
2022-09-03T10:18:48.383Z,1.60
2022-09-03T10:21:23.954Z,1.52
2022-09-03T10:24:24.093Z,1.08
2022-09-03T10:26:55.651Z,1.17
2022-09-03T10:29:29.588Z,0.85
2022-09-03T10:32:39.472Z,2.25
2022-09-03T10:35:12.398Z,1.20
2022-09-03T10:38:05.306Z,1.10
2022-09-03T10:40:49.111Z,1.23
2022-09-03T10:43:32.881Z,1.10
2022-09-03T10:46:10.465Z,1.25
2022-09-03T10:48:59.238Z,1.13
2022-09-03T10:51:58.108Z,1.17
2022-09-03T10:54:38.486Z,1.00
2022-09-03T10:57:23.202Z,1.80
2022-09-03T11:00:12.124Z,1.33
2022-09-03T11:02:53.910Z,1.65
2022-09-03T11:05:26.680Z,1.27
2022-09-03T11:08:00.960Z,1.20
2022-09-03T11:10:38.137Z,1.85
2022-09-03T11:13:07.906Z,1.65
2022-09-03T11:15:52.988Z,1.38
2022-09-03T11:18:44.577Z,1.85
2022-09-03T11:21:20.209Z,2.15
2022-09-03T11:26:26.449Z,1.95
2022-09-03T11:28:56.180Z,1.48
2022-09-03T11:31:44.891Z,4.60
2022-09-03T11:34:32.607Z,2.40
2022-09-03T11:37:18.919Z,2.72
2022-09-03T11:42:37.150Z,1.38
2022-09-03T11:45:44.459Z,0.80
2022-09-03T11:48:18.989Z,0.90
2022-09-03T11:50:56.050Z,1.17
2022-09-03T11:53:30.424Z,0.90
2022-09-03T11:56:02.214Z,0.90
2022-09-03T11:58:38.127Z,1.25
2022-09-03T12:01:10.647Z,1.33
2022-09-03T12:03:53.175Z,0.95
2022-09-03T12:06:38.465Z,0.98
2022-09-03T12:09:34.001Z,0.90
2022-09-03T12:12:09.279Z,0.63
2022-09-03T12:14:59.343Z,0.75
2022-09-03T12:18:16.053Z,0.80
2022-09-03T12:20:43.684Z,0.80
2022-09-03T12:23:15.351Z,0.68
2022-09-03T12:25:49.294Z,0.60
2022-09-03T12:28:23.464Z,0.77
2022-09-03T12:30:55.154Z,3.30
2022-09-03T12:33:23.421Z,0.50
2022-09-03T12:36:03.801Z,0.70
2022-09-03T12:38:40.560Z,0.80
2022-09-03T12:41:28.239Z,1.08
2022-09-03T12:43:57.635Z,0.60
2022-09-03T12:46:35.265Z,0.70
2022-09-03T12:52:18.277Z,1.23
2022-09-03T12:55:27.469Z,0.70
2022-09-03T12:58:09.304Z,1.55
2022-09-03T13:00:52.615Z,0.77
2022-09-03T13:03:28.275Z,0.60
2022-09-03T13:06:17.044Z,1.30
2022-09-03T13:08:54.019Z,1.05
2022-09-03T13:11:22.637Z,0.73
2022-09-03T13:14:08.461Z,0.70
2022-09-03T13:19:30.980Z,2.05
2022-09-03T13:22:07.417Z,0.60
2022-09-03T13:25:04.831Z,1.58
2022-09-03T13:27:43.542Z,0.80
2022-09-03T13:30:17.390Z,0.70
2022-09-03T13:33:02.663Z,0.75
2022-09-03T13:35:48.324Z,0.68
2022-09-03T13:38:28.280Z,0.98
2022-09-03T13:40:58.397Z,0.82
2022-09-03T13:43:59.112Z,0.60
2022-09-03T13:46:55.237Z,2.33
2022-09-03T13:49:59.399Z,0.90
2022-09-03T13:52:30.604Z,0.50
2022-09-03T13:55:08.872Z,1.42
2022-09-03T13:58:01.007Z,0.70
2022-09-03T14:00:44.468Z,0.60
2022-09-03T14:03:38.212Z,0.63
2022-09-03T14:06:26.858Z,0.82
2022-09-03T14:09:07.041Z,2.78
2022-09-03T14:12:15.110Z,2.45
2022-09-03T14:15:01.544Z,0.40
2022-09-03T14:17:30.931Z,1.02
2022-09-03T14:20:07.499Z,0.60
2022-09-03T14:22:46.950Z,1.23
2022-09-03T14:25:21.294Z,0.68
2022-09-03T14:27:48.120Z,0.80
2022-09-03T14:30:28.584Z,1.85
2022-09-03T14:33:28.021Z,0.50
2022-09-03T14:36:42.393Z,0.40
2022-09-03T14:39:46.967Z,0.68
2022-09-03T14:42:32.548Z,0.60
2022-09-03T14:45:47.160Z,0.90
2022-09-03T14:48:43.134Z,0.55
2022-09-03T14:51:28.049Z,0.50
2022-09-03T14:54:11.219Z,1.23
2022-09-03T14:56:53.779Z,0.90
2022-09-03T14:59:48.733Z,0.90
2022-09-03T15:02:54.048Z,1.63
2022-09-03T15:05:27.177Z,0.60
2022-09-03T15:08:01.636Z,0.50
2022-09-03T15:10:47.565Z,0.55
2022-09-03T15:16:04.388Z,0.70
2022-09-03T15:18:46.919Z,0.60
2022-09-03T15:21:42.729Z,0.70
2022-09-03T15:24:30.267Z,2.33
2022-09-03T15:27:03.382Z,0.60
2022-09-03T15:29:41.390Z,1.00
2022-09-03T15:35:51.645Z,1.00
2022-09-03T15:38:31.504Z,1.15
2022-09-03T15:41:10.407Z,0.80
2022-09-03T15:43:39.423Z,1.17
2022-09-03T15:46:34.557Z,1.23
2022-09-03T15:49:08.996Z,0.98
2022-09-03T15:51:51.782Z,0.70
2022-09-03T15:54:31.426Z,1.02
2022-09-03T15:57:12.731Z,1.13
2022-09-03T15:59:42.485Z,1.35
2022-09-03T16:02:22.013Z,0.95
2022-09-03T16:05:19.381Z,1.48
2022-09-03T16:07:57.120Z,0.77
2022-09-03T16:10:42.768Z,0.80
2022-09-03T16:13:32.416Z,0.90
2022-09-03T16:16:05.572Z,1.40
2022-09-03T16:19:08.141Z,0.80
2022-09-03T16:21:46.201Z,2.22
2022-09-03T16:24:36.283Z,1.25
2022-09-03T16:27:17.446Z,1.60
2022-09-03T16:30:14.102Z,1.92
2022-09-03T16:32:54.796Z,1.73
2022-09-03T16:35:30.382Z,1.48
2022-09-03T16:40:40.615Z,3.22
2022-09-03T16:43:39.566Z,5.20
2022-09-03T16:46:39.956Z,4.68
2022-09-03T16:49:38.599Z,3.05
2022-09-03T16:52:38.206Z,1.80
2022-09-03T16:55:48.790Z,1.88
2022-09-03T16:58:28.385Z,1.58
2022-09-03T17:01:08.723Z,2.42
2022-09-03T17:03:55.684Z,2.13
2022-09-03T17:06:27.965Z,4.22
2022-09-03T17:09:18.168Z,1.10
2022-09-03T17:12:19.935Z,1.45
2022-09-03T17:15:07.386Z,1.50
2022-09-03T17:17:57.375Z,3.65
2022-09-03T17:21:04.347Z,1.42
2022-09-03T17:26:21.256Z,1.50
2022-09-03T17:29:14.792Z,1.35
2022-09-03T17:32:03.388Z,1.88
2022-09-03T17:34:58.011Z,1.30
2022-09-03T17:37:42.194Z,1.92
2022-09-03T17:40:22.734Z,3.85
2022-09-03T17:43:04.668Z,1.58
2022-09-03T17:45:43.577Z,1.98
2022-09-03T17:48:36.358Z,1.60
2022-09-03T17:51:29.089Z,2.25
2022-09-03T17:54:05.465Z,3.40
2022-09-03T17:57:05.289Z,2.38
2022-09-03T17:59:42.152Z,2.90
2022-09-03T18:02:14.599Z,3.15
2022-09-03T18:05:03.243Z,3.85
2022-09-03T18:07:41.907Z,3.63
2022-09-03T18:10:25.748Z,2.25
2022-09-03T18:13:25.762Z,1.73
2022-09-03T18:15:59.945Z,2.92
2022-09-03T18:18:38.423Z,2.53
2022-09-03T18:21:36.926Z,3.40
2022-09-03T18:24:44.116Z,4.05
2022-09-03T18:27:36.472Z,3.47
2022-09-03T18:30:23.997Z,2.92
2022-09-03T18:33:09.208Z,3.78
2022-09-03T18:35:54.862Z,2.30
2022-09-03T18:38:50.887Z,4.55
2022-09-03T18:42:13.752Z,2.80
2022-09-03T18:46:06.166Z,3.45
2022-09-03T18:48:55.912Z,2.50
2022-09-03T18:52:01.574Z,1.63
2022-09-03T18:55:08.599Z,2.92
2022-09-03T18:58:18.722Z,2.90
2022-09-03T19:01:28.793Z,2.70
2022-09-03T19:04:34.214Z,1.63
2022-09-03T19:07:40.082Z,2.47
2022-09-03T19:10:29.523Z,1.60
2022-09-03T19:13:39.926Z,1.80
2022-09-03T19:16:31.359Z,2.28
2022-09-03T19:19:44.812Z,1.52
2022-09-03T19:22:36.689Z,1.80
2022-09-03T19:25:28.284Z,1.90
2022-09-03T19:28:21.665Z,1.52
2022-09-03T19:31:25.668Z,2.30
2022-09-03T19:34:29.342Z,2.05
2022-09-03T19:37:40.216Z,2.83
2022-09-03T19:40:28.633Z,2.00
2022-09-03T19:43:43.193Z,1.80
2022-09-03T19:46:41.465Z,3.28
2022-09-03T19:49:48.382Z,2.22
2022-09-03T19:52:56.832Z,2.15
2022-09-03T19:55:50.219Z,2.17
2022-09-03T19:58:44.104Z,2.90
2022-09-03T20:01:30.566Z,2.75
2022-09-03T20:07:06.997Z,3.83
2022-09-03T20:09:58.866Z,5.65
2022-09-03T20:12:30.539Z,1.83
2022-09-03T20:14:57.081Z,3.72
2022-09-03T20:17:45.125Z,1.50
2022-09-03T20:20:26.355Z,1.85
2022-09-03T20:23:46.417Z,2.00
2022-09-03T20:26:28.491Z,3.38
2022-09-03T20:29:32.388Z,2.03
2022-09-03T20:32:24.897Z,2.42
2022-09-03T20:35:06.072Z,2.45
2022-09-03T20:37:42.560Z,2.42
2022-09-03T20:40:34.820Z,2.00
2022-09-03T20:43:21.348Z,2.95
2022-09-03T20:45:50.774Z,2.58
2022-09-03T20:48:38.594Z,2.92
2022-09-03T20:51:13.121Z,3.67
2022-09-03T20:53:55.220Z,2.53
2022-09-03T20:56:33.472Z,2.30
2022-09-03T20:59:20.491Z,2.45
2022-09-03T21:01:56.202Z,1.83
2022-09-03T21:07:16.566Z,2.10
2022-09-03T21:10:13.753Z,2.22
2022-09-03T21:13:01.801Z,3.55
2022-09-03T21:15:59.183Z,2.83
2022-09-03T21:18:32.123Z,2.03
2022-09-03T21:21:09.770Z,2.03
2022-09-03T21:23:44.036Z,3.25
2022-09-03T21:26:25.501Z,2.95
2022-09-03T21:29:24.378Z,2.15
2022-09-03T21:32:27.712Z,2.20
2022-09-03T21:35:16.259Z,1.95
2022-09-03T21:37:58.614Z,4.22
2022-09-03T21:40:31.438Z,2.22
2022-09-03T21:43:24.069Z,2.38
2022-09-03T21:45:58.294Z,2.03
2022-09-03T21:48:37.470Z,2.00
2022-09-03T21:51:18.672Z,2.40
2022-09-03T21:53:51.144Z,2.65
2022-09-03T21:56:42.600Z,1.90
2022-09-03T21:59:13.761Z,1.90
2022-09-03T22:02:03.299Z,2.97
2022-09-03T22:04:31.704Z,1.80
2022-09-03T22:07:20.006Z,1.65
2022-09-03T22:10:20.373Z,4.93
2022-09-03T22:13:00.883Z,1.83
2022-09-03T22:15:30.349Z,1.70
2022-09-03T22:18:07.470Z,1.77
2022-09-03T22:20:37.576Z,2.03
2022-09-03T22:23:12.413Z,2.15
2022-09-03T22:26:00.738Z,1.40
2022-09-03T22:28:41.833Z,2.25
2022-09-03T22:31:24.358Z,3.17
2022-09-03T22:34:27.933Z,2.25
2022-09-03T22:37:03.622Z,1.67
2022-09-03T22:39:37.580Z,3.58
2022-09-03T22:42:24.372Z,2.05
2022-09-03T22:44:59.592Z,3.47
2022-09-03T22:47:33.666Z,3.40
2022-09-03T22:50:14.554Z,2.97
2022-09-03T22:52:49.659Z,2.92
2022-09-03T22:55:23.306Z,3.85
2022-09-03T22:57:49.825Z,6.25
2022-09-03T23:00:22.042Z,4.50
2022-09-03T23:02:56.335Z,6.18
2022-09-03T23:05:35.627Z,5.68
2022-09-03T23:08:40.614Z,4.00
2022-09-03T23:11:14.864Z,6.53
2022-09-03T23:13:45.454Z,4.32
2022-09-03T23:16:46.305Z,4.45
2022-09-03T23:19:40.377Z,3.58
2022-09-03T23:22:15.431Z,3.58
2022-09-03T23:24:55.360Z,3.63
2022-09-03T23:27:56.301Z,4.50
2022-09-03T23:30:22.883Z,3.72
2022-09-03T23:32:55.196Z,3.80
2022-09-03T23:35:27.690Z,3.50
2022-09-03T23:38:22.061Z,4.90
2022-09-03T23:40:52.377Z,4.90
2022-09-03T23:43:56.388Z,3.88
2022-09-03T23:46:32.805Z,3.45
2022-09-03T23:49:14.778Z,4.40
2022-09-03T23:52:00.371Z,3.30
2022-09-03T23:54:36.031Z,4.25
2022-09-03T23:57:35.751Z,2.97
